Fort Lee, VA (23801)

10:01 PM EST on December 10, 2016 (GMT -0500)
Lakeshore Estates South Prince George | | Change Station

Elev 142 ft 37.18 °N, 77.34 °W | Updated 8 seconds ago

Clear
Clear
25.5 °F
Feels Like 26 °F
N
0.0
Wind Variable Wind from WSW
Gusts 0.0 mph

Today
High -- | Low -- °F
--% Chance of Precip.
Yesterday
High -- | Low -- °F
Precip. -- in
Pressure 30.52 in
Visibility 10.0 miles
Clouds Clear
Windchill 26 °F
Dew Point 21 °F
Humidity 83%
Rainfall 0.00 in
Snow Depth Not available.
7:12 AM 4:52 PM
Waxing Gibbous, 88% visible
METAR KPTB 110255Z AUTO 00000KT 10SM CLR M06/M07 A3052 RMK AO2 T10651075
Pressure 30.52 in
Visibility 10.0 miles
Clouds Clear
Windchill 26 °F
Dew Point 21 °F
Humidity 83%
Rainfall 0.00 in
Snow Depth Not available.
7:12 AM 4:52 PM
Waxing Gibbous, 88% visible
METAR KPTB 110255Z AUTO 00000KT 10SM CLR M06/M07 A3052 RMK AO2 T10651075

10-Day Weather Forecast

Almanac

Astronomy

Dec. 10, 2016 Rise Set
Actual Time
Civil Twilight
Nautical Twilight
Astronomical Twilight
Moon
Length of Visible Light
Length of Day
Tomorrow will be .
, % of the Moon is Illuminated

Today's Extremes

State Highs State Lows

Community

WunderPhotos

Upload Photos

1,956,692 photos uploaded!

WunderBlog® & News

Nearby

Air Quality

  Air Quality AQ Index Pollutant
Not available.

Snow Depth

Station Depth Elevation

Earthquake Activity

City Distance Mag. Time & Date
Minimum magnitude displayed is 2.5.

Coastal Water Temperatures

Place Temperature

Stations

Nearby Weather Stations

Station Location Temp. Windchill Dew Point Humidity Wind Precip. Elev Updated Type
                   

Watches & Warnings

There are currently no watches in effect.